sensor_id;sensor_type;location;lat;lon;timestamp;P1;durP1;ratioP1;P2;durP2;ratioP2
71435;SDS011;59251;51.326;12.370;2023-09-30T00:02:26;6.83;;;1.00;;
71435;SDS011;59251;51.326;12.370;2023-09-30T00:04:52;7.28;;;1.10;;
71435;SDS011;59251;51.326;12.370;2023-09-30T00:07:19;5.85;;;0.98;;
71435;SDS011;59251;51.326;12.370;2023-09-30T00:09:48;8.07;;;0.90;;
71435;SDS011;59251;51.326;12.370;2023-09-30T00:12:16;5.20;;;0.82;;
71435;SDS011;59251;51.326;12.370;2023-09-30T00:14:43;6.47;;;1.10;;
71435;SDS011;59251;51.326;12.370;2023-09-30T00:17:10;8.25;;;1.30;;
71435;SDS011;59251;51.326;12.370;2023-09-30T00:19:36;6.13;;;0.90;;
71435;SDS011;59251;51.326;12.370;2023-09-30T00:22:03;7.70;;;0.95;;
71435;SDS011;59251;51.326;12.370;2023-09-30T00:24:30;7.82;;;1.38;;
71435;SDS011;59251;51.326;12.370;2023-09-30T00:26:58;6.47;;;1.30;;
71435;SDS011;59251;51.326;12.370;2023-09-30T00:29:25;5.85;;;0.80;;
71435;SDS011;59251;51.326;12.370;2023-09-30T00:31:52;7.82;;;1.27;;
71435;SDS011;59251;51.326;12.370;2023-09-30T00:34:19;9.82;;;1.10;;
71435;SDS011;59251;51.326;12.370;2023-09-30T00:36:45;5.82;;;1.23;;
71435;SDS011;59251;51.326;12.370;2023-09-30T00:39:12;8.10;;;1.10;;
71435;SDS011;59251;51.326;12.370;2023-09-30T00:41:39;6.20;;;0.85;;
71435;SDS011;59251;51.326;12.370;2023-09-30T00:44:07;6.47;;;1.15;;
71435;SDS011;59251;51.326;12.370;2023-09-30T00:46:35;8.35;;;1.27;;
71435;SDS011;59251;51.326;12.370;2023-09-30T00:49:03;8.13;;;1.38;;
71435;SDS011;59251;51.326;12.370;2023-09-30T00:51:30;9.07;;;2.00;;
71435;SDS011;59251;51.326;12.370;2023-09-30T00:53:58;7.60;;;1.10;;
71435;SDS011;59251;51.326;12.370;2023-09-30T00:56:26;6.63;;;1.38;;
71435;SDS011;59251;51.326;12.370;2023-09-30T00:58:54;7.70;;;1.30;;
71435;SDS011;59251;51.326;12.370;2023-09-30T01:01:23;9.77;;;1.45;;
71435;SDS011;59251;51.326;12.370;2023-09-30T01:03:51;8.23;;;1.47;;
71435;SDS011;59251;51.326;12.370;2023-09-30T01:06:17;6.95;;;1.23;;
71435;SDS011;59251;51.326;12.370;2023-09-30T01:08:44;7.45;;;1.45;;
71435;SDS011;59251;51.326;12.370;2023-09-30T01:11:11;8.68;;;1.50;;
71435;SDS011;59251;51.326;12.370;2023-09-30T01:13:39;9.80;;;2.47;;
71435;SDS011;59251;51.326;12.370;2023-09-30T01:16:06;12.20;;;1.50;;
71435;SDS011;59251;51.326;12.370;2023-09-30T01:18:36;6.07;;;1.38;;
71435;SDS011;59251;51.326;12.370;2023-09-30T01:21:04;11.77;;;1.73;;
71435;SDS011;59251;51.326;12.370;2023-09-30T01:23:34;8.07;;;1.40;;
71435;SDS011;59251;51.326;12.370;2023-09-30T01:26:02;10.63;;;1.65;;
71435;SDS011;59251;51.326;12.370;2023-09-30T01:28:30;7.82;;;1.38;;
71435;SDS011;59251;51.326;12.370;2023-09-30T01:30:57;6.68;;;1.40;;
71435;SDS011;59251;51.326;12.370;2023-09-30T01:33:23;9.77;;;1.70;;
71435;SDS011;59251;51.326;12.370;2023-09-30T01:35:50;7.57;;;1.30;;
71435;SDS011;59251;51.326;12.370;2023-09-30T01:38:17;11.18;;;2.38;;
71435;SDS011;59251;51.326;12.370;2023-09-30T01:40:46;10.03;;;1.87;;
71435;SDS011;59251;51.326;12.370;2023-09-30T01:43:13;9.57;;;1.60;;
71435;SDS011;59251;51.326;12.370;2023-09-30T01:45:40;9.45;;;1.98;;
71435;SDS011;59251;51.326;12.370;2023-09-30T01:48:07;8.40;;;1.85;;
71435;SDS011;59251;51.326;12.370;2023-09-30T01:50:36;8.10;;;1.50;;
71435;SDS011;59251;51.326;12.370;2023-09-30T01:53:03;9.23;;;1.60;;
71435;SDS011;59251;51.326;12.370;2023-09-30T01:55:30;9.85;;;2.00;;
71435;SDS011;59251;51.326;12.370;2023-09-30T01:57:58;10.80;;;2.03;;
71435;SDS011;59251;51.326;12.370;2023-09-30T02:00:25;10.75;;;1.83;;
71435;SDS011;59251;51.326;12.370;2023-09-30T02:02:53;11.38;;;2.30;;
71435;SDS011;59251;51.326;12.370;2023-09-30T02:05:20;8.88;;;1.70;;
71435;SDS011;59251;51.326;12.370;2023-09-30T02:07:48;10.60;;;2.35;;
71435;SDS011;59251;51.326;12.370;2023-09-30T02:10:16;12.02;;;2.28;;
71435;SDS011;59251;51.326;12.370;2023-09-30T02:12:43;8.80;;;1.80;;
71435;SDS011;59251;51.326;12.370;2023-09-30T02:15:13;9.77;;;1.83;;
71435;SDS011;59251;51.326;12.370;2023-09-30T02:17:40;7.82;;;1.75;;
71435;SDS011;59251;51.326;12.370;2023-09-30T02:20:10;7.55;;;1.80;;
71435;SDS011;59251;51.326;12.370;2023-09-30T02:22:41;10.48;;;2.25;;
71435;SDS011;59251;51.326;12.370;2023-09-30T02:25:09;8.75;;;1.90;;
71435;SDS011;59251;51.326;12.370;2023-09-30T02:27:38;10.52;;;2.20;;
71435;SDS011;59251;51.326;12.370;2023-09-30T02:30:07;11.52;;;2.05;;
71435;SDS011;59251;51.326;12.370;2023-09-30T02:32:38;10.52;;;2.40;;
71435;SDS011;59251;51.326;12.370;2023-09-30T02:35:06;10.55;;;2.70;;
71435;SDS011;59251;51.326;12.370;2023-09-30T02:37:36;8.48;;;2.30;;
71435;SDS011;59251;51.326;12.370;2023-09-30T02:40:02;10.27;;;2.25;;
71435;SDS011;59251;51.326;12.370;2023-09-30T02:42:34;10.82;;;2.78;;
71435;SDS011;59251;51.326;12.370;2023-09-30T02:45:01;9.90;;;2.28;;
71435;SDS011;59251;51.326;12.370;2023-09-30T02:47:28;12.15;;;2.38;;
71435;SDS011;59251;51.326;12.370;2023-09-30T02:49:57;10.80;;;2.70;;
71435;SDS011;59251;51.326;12.370;2023-09-30T02:52:25;10.32;;;2.40;;
71435;SDS011;59251;51.326;12.370;2023-09-30T02:54:52;10.23;;;2.60;;
71435;SDS011;59251;51.326;12.370;2023-09-30T02:57:19;10.70;;;2.58;;
71435;SDS011;59251;51.326;12.370;2023-09-30T02:59:46;12.38;;;2.75;;
71435;SDS011;59251;51.326;12.370;2023-09-30T03:02:13;9.93;;;2.60;;
71435;SDS011;59251;51.326;12.370;2023-09-30T03:04:43;9.32;;;2.40;;
71435;SDS011;59251;51.326;12.370;2023-09-30T03:07:13;11.45;;;2.83;;
71435;SDS011;59251;51.326;12.370;2023-09-30T03:09:40;10.32;;;2.53;;
71435;SDS011;59251;51.326;12.370;2023-09-30T03:12:07;13.57;;;3.17;;
71435;SDS011;59251;51.326;12.370;2023-09-30T03:14:34;11.85;;;3.67;;
71435;SDS011;59251;51.326;12.370;2023-09-30T03:17:01;14.40;;;3.03;;
71435;SDS011;59251;51.326;12.370;2023-09-30T03:19:28;10.85;;;2.72;;
71435;SDS011;59251;51.326;12.370;2023-09-30T03:21:55;14.68;;;3.45;;
71435;SDS011;59251;51.326;12.370;2023-09-30T03:24:23;12.10;;;3.20;;
71435;SDS011;59251;51.326;12.370;2023-09-30T03:26:52;13.20;;;2.80;;
71435;SDS011;59251;51.326;12.370;2023-09-30T03:29:19;14.18;;;3.05;;
71435;SDS011;59251;51.326;12.370;2023-09-30T03:31:45;12.77;;;2.97;;
71435;SDS011;59251;51.326;12.370;2023-09-30T03:34:12;11.27;;;3.03;;
71435;SDS011;59251;51.326;12.370;2023-09-30T03:36:41;15.45;;;3.25;;
71435;SDS011;59251;51.326;12.370;2023-09-30T03:39:08;19.83;;;7.03;;
71435;SDS011;59251;51.326;12.370;2023-09-30T03:41:41;13.20;;;2.83;;
71435;SDS011;59251;51.326;12.370;2023-09-30T03:44:07;12.77;;;3.10;;
71435;SDS011;59251;51.326;12.370;2023-09-30T03:46:34;10.80;;;3.40;;
71435;SDS011;59251;51.326;12.370;2023-09-30T03:49:01;11.88;;;3.42;;
71435;SDS011;59251;51.326;12.370;2023-09-30T03:51:28;13.35;;;3.30;;
71435;SDS011;59251;51.326;12.370;2023-09-30T03:53:55;9.73;;;3.08;;
71435;SDS011;59251;51.326;12.370;2023-09-30T03:56:22;10.43;;;2.92;;
71435;SDS011;59251;51.326;12.370;2023-09-30T03:58:50;12.57;;;2.75;;
71435;SDS011;59251;51.326;12.370;2023-09-30T04:01:17;13.82;;;2.97;;
71435;SDS011;59251;51.326;12.370;2023-09-30T04:03:45;8.75;;;2.90;;
71435;SDS011;59251;51.326;12.370;2023-09-30T04:06:12;12.70;;;3.33;;
71435;SDS011;59251;51.326;12.370;2023-09-30T04:08:38;16.35;;;2.90;;
71435;SDS011;59251;51.326;12.370;2023-09-30T04:11:05;15.85;;;3.00;;
71435;SDS011;59251;51.326;12.370;2023-09-30T04:13:32;14.13;;;2.75;;
71435;SDS011;59251;51.326;12.370;2023-09-30T04:16:01;13.18;;;3.20;;
71435;SDS011;59251;51.326;12.370;2023-09-30T04:18:28;12.65;;;2.75;;
71435;SDS011;59251;51.326;12.370;2023-09-30T04:20:55;10.70;;;2.58;;
71435;SDS011;59251;51.326;12.370;2023-09-30T04:23:22;14.30;;;3.03;;
71435;SDS011;59251;51.326;12.370;2023-09-30T04:25:49;11.07;;;3.13;;
71435;SDS011;59251;51.326;12.370;2023-09-30T04:28:15;11.82;;;2.55;;
71435;SDS011;59251;51.326;12.370;2023-09-30T04:30:46;11.80;;;2.70;;
71435;SDS011;59251;51.326;12.370;2023-09-30T04:33:16;15.30;;;2.78;;
71435;SDS011;59251;51.326;12.370;2023-09-30T04:35:43;10.32;;;2.38;;
71435;SDS011;59251;51.326;12.370;2023-09-30T04:38:10;13.98;;;2.60;;
71435;SDS011;59251;51.326;12.370;2023-09-30T04:40:38;13.45;;;2.75;;
71435;SDS011;59251;51.326;12.370;2023-09-30T04:43:05;13.25;;;2.53;;
71435;SDS011;59251;51.326;12.370;2023-09-30T04:45:32;9.02;;;2.25;;
71435;SDS011;59251;51.326;12.370;2023-09-30T04:47:58;12.10;;;2.70;;
71435;SDS011;59251;51.326;12.370;2023-09-30T04:50:28;14.32;;;2.53;;
71435;SDS011;59251;51.326;12.370;2023-09-30T04:52:55;14.30;;;2.85;;
71435;SDS011;59251;51.326;12.370;2023-09-30T04:55:22;10.30;;;2.13;;
71435;SDS011;59251;51.326;12.370;2023-09-30T04:57:49;9.50;;;2.42;;
71435;SDS011;59251;51.326;12.370;2023-09-30T05:00:17;9.32;;;2.40;;
71435;SDS011;59251;51.326;12.370;2023-09-30T05:02:50;12.80;;;3.20;;
71435;SDS011;59251;51.326;12.370;2023-09-30T05:05:17;12.23;;;3.13;;
71435;SDS011;59251;51.326;12.370;2023-09-30T05:07:46;12.98;;;2.75;;
71435;SDS011;59251;51.326;12.370;2023-09-30T05:10:13;11.68;;;2.42;;
71435;SDS011;59251;51.326;12.370;2023-09-30T05:12:41;10.13;;;2.42;;
71435;SDS011;59251;51.326;12.370;2023-09-30T05:15:11;14.57;;;2.95;;
71435;SDS011;59251;51.326;12.370;2023-09-30T05:17:39;12.00;;;2.83;;
71435;SDS011;59251;51.326;12.370;2023-09-30T05:20:07;13.10;;;2.90;;
71435;SDS011;59251;51.326;12.370;2023-09-30T05:22:34;12.23;;;2.75;;
71435;SDS011;59251;51.326;12.370;2023-09-30T05:25:02;13.23;;;2.95;;
71435;SDS011;59251;51.326;12.370;2023-09-30T05:27:29;14.70;;;3.70;;
71435;SDS011;59251;51.326;12.370;2023-09-30T05:29:57;14.07;;;3.80;;
71435;SDS011;59251;51.326;12.370;2023-09-30T05:32:25;17.65;;;3.90;;
71435;SDS011;59251;51.326;12.370;2023-09-30T05:34:52;14.35;;;4.43;;
71435;SDS011;59251;51.326;12.370;2023-09-30T05:37:19;11.50;;;3.80;;
71435;SDS011;59251;51.326;12.370;2023-09-30T05:39:47;17.10;;;4.68;;
71435;SDS011;59251;51.326;12.370;2023-09-30T05:42:15;16.15;;;3.75;;
71435;SDS011;59251;51.326;12.370;2023-09-30T05:44:42;12.93;;;3.70;;
71435;SDS011;59251;51.326;12.370;2023-09-30T05:47:09;14.48;;;3.80;;
71435;SDS011;59251;51.326;12.370;2023-09-30T05:49:36;17.55;;;3.40;;
71435;SDS011;59251;51.326;12.370;2023-09-30T05:52:03;15.80;;;3.67;;
71435;SDS011;59251;51.326;12.370;2023-09-30T05:54:30;12.50;;;3.15;;
71435;SDS011;59251;51.326;12.370;2023-09-30T05:56:57;18.17;;;3.60;;
71435;SDS011;59251;51.326;12.370;2023-09-30T05:59:27;12.75;;;2.92;;
71435;SDS011;59251;51.326;12.370;2023-09-30T06:01:54;13.80;;;3.20;;
71435;SDS011;59251;51.326;12.370;2023-09-30T06:04:21;13.40;;;2.83;;
71435;SDS011;59251;51.326;12.370;2023-09-30T06:06:48;20.42;;;3.17;;
71435;SDS011;59251;51.326;12.370;2023-09-30T06:09:14;10.70;;;3.03;;
71435;SDS011;59251;51.326;12.370;2023-09-30T06:11:41;10.43;;;2.65;;
71435;SDS011;59251;51.326;12.370;2023-09-30T06:14:08;11.73;;;2.72;;
71435;SDS011;59251;51.326;12.370;2023-09-30T06:16:36;15.73;;;3.00;;
71435;SDS011;59251;51.326;12.370;2023-09-30T06:19:03;11.70;;;2.95;;
71435;SDS011;59251;51.326;12.370;2023-09-30T06:21:31;13.82;;;3.20;;
71435;SDS011;59251;51.326;12.370;2023-09-30T06:23:59;11.63;;;2.65;;
71435;SDS011;59251;51.326;12.370;2023-09-30T06:26:26;13.48;;;2.63;;
71435;SDS011;59251;51.326;12.370;2023-09-30T06:28:54;12.07;;;2.20;;
71435;SDS011;59251;51.326;12.370;2023-09-30T06:31:21;13.25;;;2.65;;
71435;SDS011;59251;51.326;12.370;2023-09-30T06:33:49;12.68;;;2.67;;
71435;SDS011;59251;51.326;12.370;2023-09-30T06:36:16;13.60;;;2.55;;
71435;SDS011;59251;51.326;12.370;2023-09-30T06:38:43;14.85;;;2.60;;
71435;SDS011;59251;51.326;12.370;2023-09-30T06:41:16;11.35;;;2.30;;
71435;SDS011;59251;51.326;12.370;2023-09-30T06:43:44;11.25;;;2.67;;
71435;SDS011;59251;51.326;12.370;2023-09-30T06:46:11;12.07;;;2.55;;
71435;SDS011;59251;51.326;12.370;2023-09-30T06:48:39;10.25;;;2.28;;
71435;SDS011;59251;51.326;12.370;2023-09-30T06:51:09;11.55;;;2.13;;
71435;SDS011;59251;51.326;12.370;2023-09-30T06:53:39;13.35;;;2.30;;
71435;SDS011;59251;51.326;12.370;2023-09-30T06:56:06;11.25;;;2.28;;
71435;SDS011;59251;51.326;12.370;2023-09-30T06:58:33;10.55;;;2.13;;
71435;SDS011;59251;51.326;12.370;2023-09-30T07:01:00;12.40;;;2.50;;
71435;SDS011;59251;51.326;12.370;2023-09-30T07:03:27;12.20;;;2.05;;
71435;SDS011;59251;51.326;12.370;2023-09-30T07:05:55;11.60;;;2.45;;
71435;SDS011;59251;51.326;12.370;2023-09-30T07:08:26;13.35;;;2.65;;
71435;SDS011;59251;51.326;12.370;2023-09-30T07:10:55;11.20;;;2.35;;
71435;SDS011;59251;51.326;12.370;2023-09-30T07:13:21;11.32;;;2.20;;
71435;SDS011;59251;51.326;12.370;2023-09-30T07:15:48;11.52;;;2.05;;
71435;SDS011;59251;51.326;12.370;2023-09-30T07:18:15;11.38;;;2.15;;
71435;SDS011;59251;51.326;12.370;2023-09-30T07:20:42;10.70;;;2.45;;
71435;SDS011;59251;51.326;12.370;2023-09-30T07:23:09;9.02;;;2.20;;
71435;SDS011;59251;51.326;12.370;2023-09-30T07:25:39;13.05;;;2.72;;
71435;SDS011;59251;51.326;12.370;2023-09-30T07:28:06;12.95;;;2.08;;
71435;SDS011;59251;51.326;12.370;2023-09-30T07:30:36;11.10;;;2.20;;
71435;SDS011;59251;51.326;12.370;2023-09-30T07:33:04;10.98;;;2.22;;
71435;SDS011;59251;51.326;12.370;2023-09-30T07:35:31;9.18;;;1.98;;
71435;SDS011;59251;51.326;12.370;2023-09-30T07:37:58;11.73;;;2.10;;
71435;SDS011;59251;51.326;12.370;2023-09-30T07:40:24;9.35;;;2.05;;
71435;SDS011;59251;51.326;12.370;2023-09-30T07:42:54;10.30;;;2.00;;
71435;SDS011;59251;51.326;12.370;2023-09-30T07:45:21;14.35;;;1.88;;
71435;SDS011;59251;51.326;12.370;2023-09-30T07:47:48;10.25;;;2.22;;
71435;SDS011;59251;51.326;12.370;2023-09-30T07:50:16;9.10;;;2.25;;
71435;SDS011;59251;51.326;12.370;2023-09-30T07:52:43;8.95;;;1.80;;
71435;SDS011;59251;51.326;12.370;2023-09-30T07:55:11;9.57;;;1.70;;
71435;SDS011;59251;51.326;12.370;2023-09-30T07:57:38;12.50;;;2.08;;
71435;SDS011;59251;51.326;12.370;2023-09-30T08:00:08;11.40;;;2.10;;
71435;SDS011;59251;51.326;12.370;2023-09-30T08:02:40;9.82;;;2.28;;
71435;SDS011;59251;51.326;12.370;2023-09-30T08:05:07;10.32;;;1.70;;
71435;SDS011;59251;51.326;12.370;2023-09-30T08:07:34;10.98;;;2.05;;
71435;SDS011;59251;51.326;12.370;2023-09-30T08:10:01;13.18;;;2.30;;
71435;SDS011;59251;51.326;12.370;2023-09-30T08:12:30;11.40;;;1.80;;
71435;SDS011;59251;51.326;12.370;2023-09-30T08:14:57;17.05;;;2.22;;
71435;SDS011;59251;51.326;12.370;2023-09-30T08:17:25;13.20;;;1.77;;
71435;SDS011;59251;51.326;12.370;2023-09-30T08:19:52;8.57;;;1.60;;
71435;SDS011;59251;51.326;12.370;2023-09-30T08:22:18;13.15;;;2.10;;
71435;SDS011;59251;51.326;12.370;2023-09-30T08:24:46;13.57;;;2.05;;
71435;SDS011;59251;51.326;12.370;2023-09-30T08:27:13;13.35;;;2.10;;
71435;SDS011;59251;51.326;12.370;2023-09-30T08:29:39;12.20;;;2.40;;
71435;SDS011;59251;51.326;12.370;2023-09-30T08:32:06;11.93;;;1.80;;
71435;SDS011;59251;51.326;12.370;2023-09-30T08:34:34;11.00;;;1.70;;
71435;SDS011;59251;51.326;12.370;2023-09-30T08:37:01;12.25;;;1.73;;
71435;SDS011;59251;51.326;12.370;2023-09-30T08:39:28;11.77;;;1.52;;
71435;SDS011;59251;51.326;12.370;2023-09-30T08:41:54;10.00;;;1.85;;
71435;SDS011;59251;51.326;12.370;2023-09-30T08:44:21;9.65;;;2.00;;
71435;SDS011;59251;51.326;12.370;2023-09-30T08:46:48;13.40;;;1.75;;
71435;SDS011;59251;51.326;12.370;2023-09-30T08:49:16;10.85;;;1.80;;
71435;SDS011;59251;51.326;12.370;2023-09-30T08:51:45;12.87;;;1.83;;
71435;SDS011;59251;51.326;12.370;2023-09-30T08:54:15;13.52;;;2.10;;
71435;SDS011;59251;51.326;12.370;2023-09-30T08:56:43;11.98;;;2.30;;
71435;SDS011;59251;51.326;12.370;2023-09-30T08:59:14;13.43;;;1.98;;
71435;SDS011;59251;51.326;12.370;2023-09-30T09:01:41;9.43;;;1.92;;
71435;SDS011;59251;51.326;12.370;2023-09-30T09:04:08;11.97;;;1.70;;
71435;SDS011;59251;51.326;12.370;2023-09-30T09:06:35;11.95;;;1.85;;
71435;SDS011;59251;51.326;12.370;2023-09-30T09:09:14;13.02;;;2.15;;
71435;SDS011;59251;51.326;12.370;2023-09-30T09:11:42;10.50;;;2.05;;
71435;SDS011;59251;51.326;12.370;2023-09-30T09:14:09;14.48;;;1.70;;
71435;SDS011;59251;51.326;12.370;2023-09-30T09:16:35;11.77;;;2.00;;
71435;SDS011;59251;51.326;12.370;2023-09-30T09:21:54;9.77;;;1.40;;
71435;SDS011;59251;51.326;12.370;2023-09-30T09:24:30;11.30;;;1.85;;
71435;SDS011;59251;51.326;12.370;2023-09-30T09:27:03;10.10;;;1.70;;
71435;SDS011;59251;51.326;12.370;2023-09-30T09:29:31;11.37;;;1.90;;
71435;SDS011;59251;51.326;12.370;2023-09-30T09:32:11;8.88;;;1.50;;
71435;SDS011;59251;51.326;12.370;2023-09-30T09:34:39;9.25;;;1.67;;
71435;SDS011;59251;51.326;12.370;2023-09-30T09:37:14;10.88;;;2.80;;
71435;SDS011;59251;51.326;12.370;2023-09-30T09:39:53;11.45;;;1.95;;
71435;SDS011;59251;51.326;12.370;2023-09-30T09:42:25;10.37;;;1.80;;
71435;SDS011;59251;51.326;12.370;2023-09-30T09:44:54;9.82;;;1.80;;
71435;SDS011;59251;51.326;12.370;2023-09-30T09:47:23;9.93;;;1.77;;
71435;SDS011;59251;51.326;12.370;2023-09-30T09:49:51;11.65;;;1.75;;
71435;SDS011;59251;51.326;12.370;2023-09-30T09:52:20;6.07;;;1.15;;
71435;SDS011;59251;51.326;12.370;2023-09-30T09:54:48;9.77;;;1.80;;
71435;SDS011;59251;51.326;12.370;2023-09-30T09:57:18;8.60;;;1.25;;
71435;SDS011;59251;51.326;12.370;2023-09-30T09:59:46;10.55;;;1.73;;
71435;SDS011;59251;51.326;12.370;2023-09-30T10:02:14;9.65;;;1.67;;
71435;SDS011;59251;51.326;12.370;2023-09-30T10:04:42;10.40;;;1.55;;
71435;SDS011;59251;51.326;12.370;2023-09-30T10:07:10;10.90;;;1.90;;
71435;SDS011;59251;51.326;12.370;2023-09-30T10:09:41;9.25;;;1.73;;
71435;SDS011;59251;51.326;12.370;2023-09-30T10:12:13;9.82;;;1.50;;
71435;SDS011;59251;51.326;12.370;2023-09-30T10:14:42;11.25;;;1.92;;
71435;SDS011;59251;51.326;12.370;2023-09-30T10:17:09;9.82;;;2.20;;
71435;SDS011;59251;51.326;12.370;2023-09-30T10:19:36;10.17;;;1.60;;
71435;SDS011;59251;51.326;12.370;2023-09-30T10:22:30;15.73;;;1.88;;
71435;SDS011;59251;51.326;12.370;2023-09-30T10:24:57;10.23;;;1.33;;
71435;SDS011;59251;51.326;12.370;2023-09-30T10:27:28;9.65;;;1.48;;
71435;SDS011;59251;51.326;12.370;2023-09-30T10:30:05;9.85;;;1.63;;
71435;SDS011;59251;51.326;12.370;2023-09-30T10:35:47;16.45;;;2.13;;
71435;SDS011;59251;51.326;12.370;2023-09-30T10:41:03;9.65;;;1.35;;
71435;SDS011;59251;51.326;12.370;2023-09-30T10:43:30;8.85;;;1.75;;
71435;SDS011;59251;51.326;12.370;2023-09-30T10:45:58;12.23;;;1.53;;
71435;SDS011;59251;51.326;12.370;2023-09-30T10:48:32;10.05;;;1.48;;
71435;SDS011;59251;51.326;12.370;2023-09-30T10:51:11;12.00;;;1.35;;
71435;SDS011;59251;51.326;12.370;2023-09-30T10:53:44;7.57;;;1.20;;
71435;SDS011;59251;51.326;12.370;2023-09-30T10:56:12;11.68;;;1.63;;
71435;SDS011;59251;51.326;12.370;2023-09-30T10:58:40;6.73;;;1.17;;
71435;SDS011;59251;51.326;12.370;2023-09-30T11:01:11;9.43;;;1.50;;
71435;SDS011;59251;51.326;12.370;2023-09-30T11:03:40;8.63;;;1.58;;
71435;SDS011;59251;51.326;12.370;2023-09-30T11:06:07;8.10;;;1.65;;
71435;SDS011;59251;51.326;12.370;2023-09-30T11:08:38;10.30;;;1.58;;
71435;SDS011;59251;51.326;12.370;2023-09-30T11:11:10;8.23;;;1.63;;
71435;SDS011;59251;51.326;12.370;2023-09-30T11:13:37;9.90;;;1.70;;
71435;SDS011;59251;51.326;12.370;2023-09-30T11:16:04;7.75;;;1.35;;
71435;SDS011;59251;51.326;12.370;2023-09-30T11:18:32;8.80;;;1.63;;
71435;SDS011;59251;51.326;12.370;2023-09-30T11:21:06;8.73;;;1.42;;
71435;SDS011;59251;51.326;12.370;2023-09-30T11:23:33;8.87;;;1.27;;
71435;SDS011;59251;51.326;12.370;2023-09-30T11:26:01;13.02;;;2.10;;
71435;SDS011;59251;51.326;12.370;2023-09-30T11:28:35;10.35;;;2.08;;
71435;SDS011;59251;51.326;12.370;2023-09-30T11:31:03;12.35;;;1.92;;
71435;SDS011;59251;51.326;12.370;2023-09-30T11:33:32;11.27;;;2.75;;
71435;SDS011;59251;51.326;12.370;2023-09-30T11:36:13;8.07;;;1.40;;
71435;SDS011;59251;51.326;12.370;2023-09-30T11:38:44;8.93;;;1.40;;
71435;SDS011;59251;51.326;12.370;2023-09-30T11:41:11;7.28;;;1.30;;
71435;SDS011;59251;51.326;12.370;2023-09-30T11:43:38;9.02;;;1.25;;
71435;SDS011;59251;51.326;12.370;2023-09-30T11:46:07;9.10;;;1.63;;
71435;SDS011;59251;51.326;12.370;2023-09-30T11:48:36;11.83;;;1.90;;
71435;SDS011;59251;51.326;12.370;2023-09-30T11:51:03;10.43;;;1.10;;
71435;SDS011;59251;51.326;12.370;2023-09-30T11:53:30;8.48;;;1.38;;
71435;SDS011;59251;51.326;12.370;2023-09-30T11:55:57;10.57;;;1.40;;
71435;SDS011;59251;51.326;12.370;2023-09-30T11:58:25;10.73;;;1.85;;
71435;SDS011;59251;51.326;12.370;2023-09-30T12:00:53;10.63;;;1.97;;
71435;SDS011;59251;51.326;12.370;2023-09-30T12:03:20;10.40;;;1.58;;
71435;SDS011;59251;51.326;12.370;2023-09-30T12:05:48;7.68;;;1.45;;
71435;SDS011;59251;51.326;12.370;2023-09-30T12:08:16;10.05;;;1.70;;
71435;SDS011;59251;51.326;12.370;2023-09-30T12:10:44;7.80;;;1.33;;
71435;SDS011;59251;51.326;12.370;2023-09-30T12:13:11;11.13;;;1.90;;
71435;SDS011;59251;51.326;12.370;2023-09-30T12:15:37;10.75;;;1.60;;
71435;SDS011;59251;51.326;12.370;2023-09-30T12:18:05;8.25;;;1.67;;
71435;SDS011;59251;51.326;12.370;2023-09-30T12:20:32;9.82;;;2.20;;
71435;SDS011;59251;51.326;12.370;2023-09-30T12:23:01;7.05;;;1.52;;
71435;SDS011;59251;51.326;12.370;2023-09-30T12:25:30;9.33;;;1.97;;
71435;SDS011;59251;51.326;12.370;2023-09-30T12:27:58;10.48;;;2.10;;
71435;SDS011;59251;51.326;12.370;2023-09-30T12:30:25;7.57;;;1.48;;
71435;SDS011;59251;51.326;12.370;2023-09-30T12:32:52;9.43;;;1.75;;
71435;SDS011;59251;51.326;12.370;2023-09-30T12:35:20;9.48;;;1.80;;
71435;SDS011;59251;51.326;12.370;2023-09-30T12:37:46;7.90;;;1.60;;
71435;SDS011;59251;51.326;12.370;2023-09-30T12:40:15;7.75;;;1.73;;
71435;SDS011;59251;51.326;12.370;2023-09-30T12:42:43;7.88;;;1.75;;
71435;SDS011;59251;51.326;12.370;2023-09-30T12:45:10;9.35;;;1.80;;
71435;SDS011;59251;51.326;12.370;2023-09-30T12:47:38;8.18;;;1.65;;
71435;SDS011;59251;51.326;12.370;2023-09-30T12:50:05;9.20;;;2.10;;
71435;SDS011;59251;51.326;12.370;2023-09-30T12:52:34;11.07;;;1.92;;
71435;SDS011;59251;51.326;12.370;2023-09-30T12:55:00;7.70;;;2.00;;
71435;SDS011;59251;51.326;12.370;2023-09-30T12:57:29;9.73;;;1.85;;
71435;SDS011;59251;51.326;12.370;2023-09-30T12:59:55;8.73;;;2.45;;
71435;SDS011;59251;51.326;12.370;2023-09-30T13:02:22;8.30;;;1.97;;
71435;SDS011;59251;51.326;12.370;2023-09-30T13:04:49;11.40;;;1.67;;
71435;SDS011;59251;51.326;12.370;2023-09-30T13:07:16;9.85;;;1.30;;
71435;SDS011;59251;51.326;12.370;2023-09-30T13:09:42;8.35;;;1.70;;
71435;SDS011;59251;51.326;12.370;2023-09-30T13:12:10;9.80;;;1.60;;
71435;SDS011;59251;51.326;12.370;2023-09-30T13:14:38;9.87;;;1.97;;
71435;SDS011;59251;51.326;12.370;2023-09-30T13:17:05;10.32;;;1.73;;
71435;SDS011;59251;51.326;12.370;2023-09-30T13:19:31;9.40;;;1.58;;
71435;SDS011;59251;51.326;12.370;2023-09-30T13:21:59;10.45;;;1.95;;
71435;SDS011;59251;51.326;12.370;2023-09-30T13:24:26;8.18;;;1.77;;
71435;SDS011;59251;51.326;12.370;2023-09-30T13:26:53;8.87;;;2.10;;
71435;SDS011;59251;51.326;12.370;2023-09-30T13:29:20;11.98;;;2.15;;
71435;SDS011;59251;51.326;12.370;2023-09-30T13:31:48;9.70;;;1.85;;
71435;SDS011;59251;51.326;12.370;2023-09-30T13:34:14;7.00;;;1.45;;
71435;SDS011;59251;51.326;12.370;2023-09-30T13:36:41;7.82;;;1.90;;
71435;SDS011;59251;51.326;12.370;2023-09-30T13:39:08;9.80;;;1.73;;
71435;SDS011;59251;51.326;12.370;2023-09-30T13:41:38;9.00;;;1.48;;
71435;SDS011;59251;51.326;12.370;2023-09-30T13:44:05;8.07;;;1.40;;
71435;SDS011;59251;51.326;12.370;2023-09-30T13:46:31;10.20;;;1.75;;
71435;SDS011;59251;51.326;12.370;2023-09-30T13:49:00;8.70;;;1.50;;
71435;SDS011;59251;51.326;12.370;2023-09-30T13:51:26;8.67;;;1.60;;
71435;SDS011;59251;51.326;12.370;2023-09-30T13:53:53;8.93;;;1.73;;
71435;SDS011;59251;51.326;12.370;2023-09-30T13:56:20;9.68;;;2.00;;
71435;SDS011;59251;51.326;12.370;2023-09-30T13:58:46;8.57;;;1.98;;
71435;SDS011;59251;51.326;12.370;2023-09-30T14:01:14;8.98;;;1.80;;
71435;SDS011;59251;51.326;12.370;2023-09-30T14:03:41;11.30;;;2.20;;
71435;SDS011;59251;51.326;12.370;2023-09-30T14:06:12;9.43;;;2.15;;
71435;SDS011;59251;51.326;12.370;2023-09-30T14:08:40;10.55;;;1.80;;
71435;SDS011;59251;51.326;12.370;2023-09-30T14:11:07;7.38;;;1.75;;
71435;SDS011;59251;51.326;12.370;2023-09-30T14:13:34;10.05;;;1.67;;
71435;SDS011;59251;51.326;12.370;2023-09-30T14:16:01;8.90;;;1.80;;
71435;SDS011;59251;51.326;12.370;2023-09-30T14:18:28;11.05;;;2.10;;
71435;SDS011;59251;51.326;12.370;2023-09-30T14:20:55;7.00;;;1.38;;
71435;SDS011;59251;51.326;12.370;2023-09-30T14:23:23;7.43;;;1.65;;
71435;SDS011;59251;51.326;12.370;2023-09-30T14:25:50;11.18;;;2.03;;
71435;SDS011;59251;51.326;12.370;2023-09-30T14:28:20;9.60;;;1.60;;
71435;SDS011;59251;51.326;12.370;2023-09-30T14:30:47;8.63;;;1.80;;
71435;SDS011;59251;51.326;12.370;2023-09-30T14:33:15;10.40;;;1.73;;
71435;SDS011;59251;51.326;12.370;2023-09-30T14:35:42;6.95;;;1.45;;
71435;SDS011;59251;51.326;12.370;2023-09-30T14:38:09;11.23;;;1.70;;
71435;SDS011;59251;51.326;12.370;2023-09-30T14:40:38;7.80;;;2.07;;